Aratuba, Brazil
Current Conditions -  °F | °C
As of 12:00 AM on Saturday 20 Dec 2014 (Local Time) from SBFZ Reporting Station
Broken Clouds Broken Clouds  
Wind Chill: 81°   Ceiling: 1700
Heat Index: 84°   Visibility: 6mi
Dew Point: 70°   Wind: 10mph
Humidity: 70%   Direction: 90°E
Pressure: 29.88"   Gusts: NA
Location:  4.42°S, 39.04°W
Report Text: SBFZ 200300Z 09009KT 9999 BKN017 27/21 Q1012
Loading
Personal Weather Stations






























Interactive Weather Map New forecast layout! Learn more

10-Day Weather Forecast

Advertisements
Track Severe Weather on mobile